Highlands, NC (28741)

6:22 PM EDT on August 27, 2015 (GMT -0400)
JKF Highlands Falls | | Change Station
CLOSE
Current Station
Personal Weather Station
Location: Highlands, NC
Elevation: 3983 ft
Nearby Weather Stations

Elev 3983 ft 35.06 °N, 83.17 °W | Updated 6 minutes ago

Partly Cloudy
Partly Cloudy
67.8 °F
Feels Like 67.8 °F
N
1.0
Wind Variable Wind from SE
Gusts 4.0 mph

Today
High -- | Low -- °F
--% Chance of Precip.
Yesterday
High -- | Low -- °F
Precip. -- in
7:01 AM 8:06 PM
Waxing Gibbous, 95% visible
Pressure 30.10 in
Visibility 10.0 miles
Clouds
Dew Point 59 °F
Humidity 74%
Rainfall 0.00 in
Snow Depth Not available.
UV Not available.
Pollen 8.30 out of 12
Air Quality Not available.
Flu Activity Not available.
METAR K1A5 272215Z AUTO 23004KT 10SM 26/14 A3010 RMK AO2 T02580143
Pressure 30.10 in
Visibility 10.0 miles
Clouds
Dew Point 59 °F
Humidity 74%
Rainfall 0.00 in
Snow Depth Not available.
UV Not available.
Pollen 8.30 out of 12
Air Quality Not available.
Flu Activity Not available.
METAR K1A5 272215Z AUTO 23004KT 10SM 26/14 A3010 RMK AO2 T02580143

10-Day Weather Forecast

×

Almanac

Astronomy

Aug. 27, 2015 Rise Set
Actual Time
Civil Twilight
Nautical Twilight
Astronomical Twilight
Moon
Length of Visible Light
Length of Day
Tomorrow will be .
, % of the Moon is Illuminated

Today's Extremes

State Highs State Lows

Community

WunderPhotos

Upload Photos

1,850,249 photos uploaded!

WunderBlogs® & News

Nearby

Air Quality

  Air Quality AQ Index Pollutant
Not available.

Snow Depth

Station Depth Elevation

Earthquake Activity

City Distance Mag. Time & Date
Minimum magnitude displayed is 2.5.

Coastal Water Temperatures

Place Temperature

Stations

Nearby Weather Stations

Station Location Temp. Windchill Dew Point Humidity Wind Precip. Elev Updated Type